Terminal Aerodrome Forecast
Issued by NWS

Home | Current Version | Previous Version | Graphics & Text | Print | Product List | Glossary On
Versions: 1 2 3 4 5 6 7 8 9 10 11 12 13 14 15
396
FTUS45 KGGW 220520
TAFSDY
TAF
KSDY 220520Z 2206/2306 VRB05KT P6SM SKC
     FM221300 30009KT P6SM FEW160
     FM221600 31013KT P6SM SKC
     FM230300 VRB05KT P6SM FEW120=

USA.gov is the U.S. government's official web portal to all federal, state and local government web resources and services.